sensor_id;sensor_type;location;lat;lon;timestamp;P1;durP1;ratioP1;P2;durP2;ratioP2
7669;SDS011;3877;42.562;27.636;2022-08-19T00:00:18;14.68;;;12.95;;
7669;SDS011;3877;42.562;27.636;2022-08-19T00:02:45;15.10;;;12.57;;
7669;SDS011;3877;42.562;27.636;2022-08-19T00:05:13;14.60;;;12.25;;
7669;SDS011;3877;42.562;27.636;2022-08-19T00:07:41;14.32;;;12.10;;
7669;SDS011;3877;42.562;27.636;2022-08-19T00:10:11;15.73;;;12.32;;
7669;SDS011;3877;42.562;27.636;2022-08-19T00:12:39;14.27;;;12.77;;
7669;SDS011;3877;42.562;27.636;2022-08-19T00:15:08;15.60;;;13.20;;
7669;SDS011;3877;42.562;27.636;2022-08-19T00:17:39;16.58;;;12.90;;
7669;SDS011;3877;42.562;27.636;2022-08-19T00:20:08;16.00;;;12.60;;
7669;SDS011;3877;42.562;27.636;2022-08-19T00:22:36;14.50;;;12.48;;
7669;SDS011;3877;42.562;27.636;2022-08-19T00:25:03;14.73;;;12.70;;
7669;SDS011;3877;42.562;27.636;2022-08-19T00:27:32;14.77;;;12.40;;
7669;SDS011;3877;42.562;27.636;2022-08-19T00:29:59;14.25;;;12.45;;
7669;SDS011;3877;42.562;27.636;2022-08-19T00:32:28;13.55;;;12.20;;
7669;SDS011;3877;42.562;27.636;2022-08-19T00:34:58;12.98;;;11.73;;
7669;SDS011;3877;42.562;27.636;2022-08-19T00:37:25;14.05;;;12.55;;
7669;SDS011;3877;42.562;27.636;2022-08-19T00:39:53;14.20;;;12.30;;
7669;SDS011;3877;42.562;27.636;2022-08-19T00:42:22;15.32;;;12.68;;
7669;SDS011;3877;42.562;27.636;2022-08-19T00:44:53;14.15;;;12.60;;
7669;SDS011;3877;42.562;27.636;2022-08-19T00:47:20;14.52;;;11.90;;
7669;SDS011;3877;42.562;27.636;2022-08-19T00:49:48;14.27;;;12.77;;
7669;SDS011;3877;42.562;27.636;2022-08-19T00:52:21;13.68;;;12.13;;
7669;SDS011;3877;42.562;27.636;2022-08-19T00:54:52;14.73;;;12.57;;
7669;SDS011;3877;42.562;27.636;2022-08-19T00:57:22;16.00;;;12.15;;
7669;SDS011;3877;42.562;27.636;2022-08-19T00:59:54;14.00;;;12.52;;
7669;SDS011;3877;42.562;27.636;2022-08-19T01:02:23;13.90;;;12.35;;
7669;SDS011;3877;42.562;27.636;2022-08-19T01:04:51;17.63;;;12.63;;
7669;SDS011;3877;42.562;27.636;2022-08-19T01:07:20;15.18;;;13.15;;
7669;SDS011;3877;42.562;27.636;2022-08-19T01:09:47;14.85;;;13.00;;
7669;SDS011;3877;42.562;27.636;2022-08-19T01:12:14;14.10;;;12.63;;
7669;SDS011;3877;42.562;27.636;2022-08-19T01:14:43;13.65;;;12.25;;
7669;SDS011;3877;42.562;27.636;2022-08-19T01:17:12;15.43;;;13.07;;
7669;SDS011;3877;42.562;27.636;2022-08-19T01:19:40;18.15;;;12.85;;
7669;SDS011;3877;42.562;27.636;2022-08-19T01:22:10;14.15;;;12.40;;
7669;SDS011;3877;42.562;27.636;2022-08-19T01:24:44;12.70;;;11.45;;
7669;SDS011;3877;42.562;27.636;2022-08-19T01:27:12;15.52;;;12.38;;
7669;SDS011;3877;42.562;27.636;2022-08-19T01:29:40;15.88;;;12.88;;
7669;SDS011;3877;42.562;27.636;2022-08-19T01:32:10;14.38;;;12.93;;
7669;SDS011;3877;42.562;27.636;2022-08-19T01:34:40;15.95;;;13.02;;
7669;SDS011;3877;42.562;27.636;2022-08-19T01:37:07;14.88;;;12.85;;
7669;SDS011;3877;42.562;27.636;2022-08-19T01:39:36;15.77;;;12.77;;
7669;SDS011;3877;42.562;27.636;2022-08-19T01:42:06;17.85;;;12.93;;
7669;SDS011;3877;42.562;27.636;2022-08-19T01:44:36;17.50;;;13.45;;
7669;SDS011;3877;42.562;27.636;2022-08-19T01:47:03;14.38;;;12.75;;
7669;SDS011;3877;42.562;27.636;2022-08-19T01:49:31;15.15;;;12.60;;
7669;SDS011;3877;42.562;27.636;2022-08-19T01:51:59;13.88;;;12.38;;
7669;SDS011;3877;42.562;27.636;2022-08-19T01:54:27;13.88;;;12.18;;
7669;SDS011;3877;42.562;27.636;2022-08-19T01:56:55;15.57;;;12.30;;
7669;SDS011;3877;42.562;27.636;2022-08-19T01:59:29;14.55;;;12.90;;
7669;SDS011;3877;42.562;27.636;2022-08-19T02:01:58;15.00;;;12.60;;
7669;SDS011;3877;42.562;27.636;2022-08-19T02:04:25;17.88;;;11.68;;
7669;SDS011;3877;42.562;27.636;2022-08-19T02:06:52;16.98;;;12.63;;
7669;SDS011;3877;42.562;27.636;2022-08-19T02:09:19;14.68;;;13.10;;
7669;SDS011;3877;42.562;27.636;2022-08-19T02:11:47;12.90;;;11.60;;
7669;SDS011;3877;42.562;27.636;2022-08-19T02:14:14;14.35;;;11.75;;
7669;SDS011;3877;42.562;27.636;2022-08-19T02:16:43;18.42;;;12.45;;
7669;SDS011;3877;42.562;27.636;2022-08-19T02:19:10;16.35;;;11.70;;
7669;SDS011;3877;42.562;27.636;2022-08-19T02:21:38;14.60;;;12.30;;
7669;SDS011;3877;42.562;27.636;2022-08-19T02:24:05;14.38;;;11.48;;
7669;SDS011;3877;42.562;27.636;2022-08-19T02:26:33;13.90;;;12.15;;
7669;SDS011;3877;42.562;27.636;2022-08-19T02:29:00;16.23;;;12.05;;
7669;SDS011;3877;42.562;27.636;2022-08-19T02:31:27;14.77;;;11.75;;
7669;SDS011;3877;42.562;27.636;2022-08-19T02:33:56;15.52;;;11.63;;
7669;SDS011;3877;42.562;27.636;2022-08-19T02:36:24;12.90;;;11.60;;
7669;SDS011;3877;42.562;27.636;2022-08-19T02:38:53;16.00;;;12.00;;
7669;SDS011;3877;42.562;27.636;2022-08-19T02:41:20;14.32;;;11.13;;
7669;SDS011;3877;42.562;27.636;2022-08-19T02:43:49;14.52;;;12.02;;
7669;SDS011;3877;42.562;27.636;2022-08-19T02:46:18;16.80;;;11.95;;
7669;SDS011;3877;42.562;27.636;2022-08-19T02:48:47;13.07;;;11.73;;
7669;SDS011;3877;42.562;27.636;2022-08-19T02:51:17;14.73;;;11.98;;
7669;SDS011;3877;42.562;27.636;2022-08-19T02:53:45;17.60;;;12.00;;
7669;SDS011;3877;42.562;27.636;2022-08-19T02:56:13;15.48;;;13.00;;
7669;SDS011;3877;42.562;27.636;2022-08-19T02:58:40;13.82;;;11.73;;
7669;SDS011;3877;42.562;27.636;2022-08-19T03:01:08;14.85;;;12.20;;
7669;SDS011;3877;42.562;27.636;2022-08-19T03:03:37;14.93;;;12.32;;
7669;SDS011;3877;42.562;27.636;2022-08-19T03:06:06;13.52;;;12.10;;
7669;SDS011;3877;42.562;27.636;2022-08-19T03:08:36;15.55;;;12.02;;
7669;SDS011;3877;42.562;27.636;2022-08-19T03:11:04;13.25;;;11.93;;
7669;SDS011;3877;42.562;27.636;2022-08-19T03:13:31;15.10;;;11.65;;
7669;SDS011;3877;42.562;27.636;2022-08-19T03:15:59;19.38;;;11.50;;
7669;SDS011;3877;42.562;27.636;2022-08-19T03:18:26;17.55;;;12.82;;
7669;SDS011;3877;42.562;27.636;2022-08-19T03:20:53;14.55;;;11.90;;
7669;SDS011;3877;42.562;27.636;2022-08-19T03:23:21;18.70;;;12.20;;
7669;SDS011;3877;42.562;27.636;2022-08-19T03:25:51;12.68;;;10.80;;
7669;SDS011;3877;42.562;27.636;2022-08-19T03:28:20;15.20;;;11.65;;
7669;SDS011;3877;42.562;27.636;2022-08-19T03:30:57;16.98;;;11.85;;
7669;SDS011;3877;42.562;27.636;2022-08-19T03:33:26;12.95;;;11.63;;
7669;SDS011;3877;42.562;27.636;2022-08-19T03:38:40;15.73;;;11.98;;
7669;SDS011;3877;42.562;27.636;2022-08-19T03:41:11;13.98;;;11.60;;
7669;SDS011;3877;42.562;27.636;2022-08-19T03:43:41;15.80;;;11.52;;
7669;SDS011;3877;42.562;27.636;2022-08-19T03:46:10;12.52;;;11.23;;
7669;SDS011;3877;42.562;27.636;2022-08-19T03:48:39;16.60;;;11.00;;
7669;SDS011;3877;42.562;27.636;2022-08-19T03:51:08;13.98;;;11.70;;
7669;SDS011;3877;42.562;27.636;2022-08-19T03:53:42;16.50;;;10.82;;
7669;SDS011;3877;42.562;27.636;2022-08-19T03:56:11;14.02;;;11.07;;
7669;SDS011;3877;42.562;27.636;2022-08-19T03:58:40;14.20;;;10.85;;
7669;SDS011;3877;42.562;27.636;2022-08-19T04:01:08;15.63;;;11.10;;
7669;SDS011;3877;42.562;27.636;2022-08-19T04:03:37;15.55;;;10.90;;
7669;SDS011;3877;42.562;27.636;2022-08-19T04:06:09;13.60;;;10.38;;
7669;SDS011;3877;42.562;27.636;2022-08-19T04:08:38;15.63;;;10.90;;
7669;SDS011;3877;42.562;27.636;2022-08-19T04:11:06;12.43;;;10.98;;
7669;SDS011;3877;42.562;27.636;2022-08-19T04:13:36;11.38;;;9.98;;
7669;SDS011;3877;42.562;27.636;2022-08-19T04:16:03;13.70;;;10.30;;
7669;SDS011;3877;42.562;27.636;2022-08-19T04:18:31;13.35;;;11.00;;
7669;SDS011;3877;42.562;27.636;2022-08-19T04:21:00;15.63;;;10.43;;
7669;SDS011;3877;42.562;27.636;2022-08-19T04:23:27;11.45;;;10.13;;
7669;SDS011;3877;42.562;27.636;2022-08-19T04:25:54;17.67;;;11.02;;
7669;SDS011;3877;42.562;27.636;2022-08-19T04:28:22;17.35;;;10.50;;
7669;SDS011;3877;42.562;27.636;2022-08-19T04:30:53;19.83;;;10.38;;
7669;SDS011;3877;42.562;27.636;2022-08-19T04:33:22;12.68;;;9.98;;
7669;SDS011;3877;42.562;27.636;2022-08-19T04:35:51;14.10;;;9.95;;
7669;SDS011;3877;42.562;27.636;2022-08-19T04:38:19;15.38;;;9.55;;
7669;SDS011;3877;42.562;27.636;2022-08-19T04:40:49;11.15;;;9.18;;
7669;SDS011;3877;42.562;27.636;2022-08-19T04:43:35;11.80;;;9.10;;
7669;SDS011;3877;42.562;27.636;2022-08-19T04:46:06;14.85;;;9.48;;
7669;SDS011;3877;42.562;27.636;2022-08-19T04:48:34;13.63;;;9.75;;
7669;SDS011;3877;42.562;27.636;2022-08-19T04:51:01;9.18;;;8.27;;
7669;SDS011;3877;42.562;27.636;2022-08-19T04:53:34;13.98;;;9.02;;
7669;SDS011;3877;42.562;27.636;2022-08-19T04:56:03;13.07;;;9.13;;
7669;SDS011;3877;42.562;27.636;2022-08-19T04:58:33;10.75;;;9.05;;
7669;SDS011;3877;42.562;27.636;2022-08-19T05:01:01;11.73;;;8.48;;
7669;SDS011;3877;42.562;27.636;2022-08-19T05:03:30;11.95;;;9.13;;
7669;SDS011;3877;42.562;27.636;2022-08-19T05:05:59;11.77;;;8.15;;
7669;SDS011;3877;42.562;27.636;2022-08-19T05:08:33;10.65;;;7.95;;
7669;SDS011;3877;42.562;27.636;2022-08-19T05:11:06;12.25;;;8.07;;
7669;SDS011;3877;42.562;27.636;2022-08-19T05:13:36;8.55;;;7.75;;
7669;SDS011;3877;42.562;27.636;2022-08-19T05:16:04;11.23;;;7.82;;
7669;SDS011;3877;42.562;27.636;2022-08-19T05:18:33;9.80;;;8.13;;
7669;SDS011;3877;42.562;27.636;2022-08-19T05:21:18;9.63;;;7.80;;
7669;SDS011;3877;42.562;27.636;2022-08-19T05:24:03;9.32;;;7.90;;
7669;SDS011;3877;42.562;27.636;2022-08-19T05:26:34;9.57;;;7.65;;
7669;SDS011;3877;42.562;27.636;2022-08-19T05:29:02;15.18;;;8.07;;
7669;SDS011;3877;42.562;27.636;2022-08-19T05:31:29;13.18;;;7.82;;
7669;SDS011;3877;42.562;27.636;2022-08-19T05:33:58;8.82;;;7.38;;
7669;SDS011;3877;42.562;27.636;2022-08-19T05:36:26;17.70;;;7.68;;
7669;SDS011;3877;42.562;27.636;2022-08-19T05:38:54;9.82;;;7.68;;
7669;SDS011;3877;42.562;27.636;2022-08-19T05:41:22;11.23;;;7.13;;
7669;SDS011;3877;42.562;27.636;2022-08-19T05:43:54;10.13;;;7.50;;
7669;SDS011;3877;42.562;27.636;2022-08-19T05:46:21;7.90;;;7.10;;
7669;SDS011;3877;42.562;27.636;2022-08-19T05:48:49;10.48;;;7.28;;
7669;SDS011;3877;42.562;27.636;2022-08-19T05:51:18;12.20;;;7.45;;
7669;SDS011;3877;42.562;27.636;2022-08-19T05:53:45;15.57;;;7.03;;
7669;SDS011;3877;42.562;27.636;2022-08-19T05:56:13;10.68;;;7.65;;
7669;SDS011;3877;42.562;27.636;2022-08-19T05:58:42;8.07;;;7.18;;
7669;SDS011;3877;42.562;27.636;2022-08-19T06:01:11;13.80;;;7.65;;
7669;SDS011;3877;42.562;27.636;2022-08-19T06:03:40;10.57;;;7.90;;
7669;SDS011;3877;42.562;27.636;2022-08-19T06:06:08;13.50;;;7.10;;
7669;SDS011;3877;42.562;27.636;2022-08-19T06:08:38;13.65;;;8.20;;
7669;SDS011;3877;42.562;27.636;2022-08-19T06:11:15;11.90;;;7.68;;
7669;SDS011;3877;42.562;27.636;2022-08-19T06:13:44;17.25;;;8.35;;
7669;SDS011;3877;42.562;27.636;2022-08-19T06:16:16;14.10;;;7.95;;
7669;SDS011;3877;42.562;27.636;2022-08-19T06:18:47;12.00;;;8.13;;
7669;SDS011;3877;42.562;27.636;2022-08-19T06:21:17;9.13;;;7.18;;
7669;SDS011;3877;42.562;27.636;2022-08-19T06:23:47;14.05;;;8.02;;
7669;SDS011;3877;42.562;27.636;2022-08-19T06:26:16;16.02;;;8.18;;
7669;SDS011;3877;42.562;27.636;2022-08-19T06:28:45;11.95;;;7.53;;
7669;SDS011;3877;42.562;27.636;2022-08-19T06:31:13;11.15;;;7.45;;
7669;SDS011;3877;42.562;27.636;2022-08-19T06:33:41;17.70;;;7.97;;
7669;SDS011;3877;42.562;27.636;2022-08-19T06:36:16;15.88;;;8.23;;
7669;SDS011;3877;42.562;27.636;2022-08-19T06:38:44;9.75;;;7.82;;
7669;SDS011;3877;42.562;27.636;2022-08-19T06:41:13;15.85;;;8.07;;
7669;SDS011;3877;42.562;27.636;2022-08-19T06:43:41;13.60;;;8.25;;
7669;SDS011;3877;42.562;27.636;2022-08-19T06:46:09;13.35;;;7.93;;
7669;SDS011;3877;42.562;27.636;2022-08-19T06:48:38;10.45;;;8.05;;
7669;SDS011;3877;42.562;27.636;2022-08-19T06:51:05;10.57;;;8.10;;
7669;SDS011;3877;42.562;27.636;2022-08-19T06:53:33;10.35;;;8.60;;
7669;SDS011;3877;42.562;27.636;2022-08-19T06:56:00;12.02;;;7.88;;
7669;SDS011;3877;42.562;27.636;2022-08-19T06:58:29;12.13;;;8.48;;
7669;SDS011;3877;42.562;27.636;2022-08-19T07:00:59;9.32;;;7.90;;
7669;SDS011;3877;42.562;27.636;2022-08-19T07:03:29;10.02;;;8.40;;
7669;SDS011;3877;42.562;27.636;2022-08-19T07:05:57;9.57;;;8.30;;
7669;SDS011;3877;42.562;27.636;2022-08-19T07:08:28;11.95;;;8.18;;
7669;SDS011;3877;42.562;27.636;2022-08-19T07:10:56;14.52;;;8.38;;
7669;SDS011;3877;42.562;27.636;2022-08-19T07:13:23;15.40;;;8.52;;
7669;SDS011;3877;42.562;27.636;2022-08-19T07:15:52;19.58;;;9.20;;
7669;SDS011;3877;42.562;27.636;2022-08-19T07:18:19;13.65;;;8.30;;
7669;SDS011;3877;42.562;27.636;2022-08-19T07:20:47;13.23;;;8.10;;
7669;SDS011;3877;42.562;27.636;2022-08-19T07:23:14;12.25;;;8.00;;
7669;SDS011;3877;42.562;27.636;2022-08-19T07:25:42;13.27;;;8.57;;
7669;SDS011;3877;42.562;27.636;2022-08-19T07:28:10;9.77;;;7.70;;
7669;SDS011;3877;42.562;27.636;2022-08-19T07:30:37;14.57;;;8.15;;
7669;SDS011;3877;42.562;27.636;2022-08-19T07:33:07;14.75;;;8.35;;
7669;SDS011;3877;42.562;27.636;2022-08-19T07:35:34;11.85;;;7.78;;
7669;SDS011;3877;42.562;27.636;2022-08-19T07:38:02;12.45;;;7.85;;
7669;SDS011;3877;42.562;27.636;2022-08-19T07:40:30;11.98;;;7.65;;
7669;SDS011;3877;42.562;27.636;2022-08-19T07:42:57;11.93;;;8.40;;
7669;SDS011;3877;42.562;27.636;2022-08-19T07:45:25;11.48;;;7.88;;
7669;SDS011;3877;42.562;27.636;2022-08-19T07:47:52;11.10;;;7.28;;
7669;SDS011;3877;42.562;27.636;2022-08-19T07:50:21;9.85;;;7.20;;
7669;SDS011;3877;42.562;27.636;2022-08-19T07:52:48;9.45;;;7.55;;
7669;SDS011;3877;42.562;27.636;2022-08-19T07:55:17;10.68;;;7.85;;
7669;SDS011;3877;42.562;27.636;2022-08-19T07:57:47;11.60;;;8.00;;
7669;SDS011;3877;42.562;27.636;2022-08-19T08:00:15;11.18;;;8.13;;
7669;SDS011;3877;42.562;27.636;2022-08-19T08:02:42;10.68;;;7.55;;
7669;SDS011;3877;42.562;27.636;2022-08-19T08:05:09;11.63;;;7.63;;
7669;SDS011;3877;42.562;27.636;2022-08-19T08:07:55;13.52;;;7.85;;
7669;SDS011;3877;42.562;27.636;2022-08-19T08:10:40;11.60;;;7.35;;
7669;SDS011;3877;42.562;27.636;2022-08-19T08:13:07;9.38;;;7.35;;
7669;SDS011;3877;42.562;27.636;2022-08-19T08:15:35;11.10;;;7.47;;
7669;SDS011;3877;42.562;27.636;2022-08-19T08:18:03;11.68;;;7.10;;
7669;SDS011;3877;42.562;27.636;2022-08-19T08:20:31;17.42;;;7.93;;
7669;SDS011;3877;42.562;27.636;2022-08-19T08:23:00;13.43;;;7.15;;
7669;SDS011;3877;42.562;27.636;2022-08-19T08:25:45;10.65;;;7.13;;
7669;SDS011;3877;42.562;27.636;2022-08-19T08:28:13;12.90;;;7.00;;
7669;SDS011;3877;42.562;27.636;2022-08-19T08:30:40;12.70;;;7.07;;
7669;SDS011;3877;42.562;27.636;2022-08-19T08:33:09;10.38;;;7.20;;
7669;SDS011;3877;42.562;27.636;2022-08-19T08:35:36;10.95;;;7.30;;
7669;SDS011;3877;42.562;27.636;2022-08-19T08:38:05;14.20;;;7.70;;
7669;SDS011;3877;42.562;27.636;2022-08-19T08:40:37;8.85;;;7.68;;
7669;SDS011;3877;42.562;27.636;2022-08-19T08:43:11;11.15;;;7.57;;
7669;SDS011;3877;42.562;27.636;2022-08-19T08:45:47;12.27;;;7.03;;
7669;SDS011;3877;42.562;27.636;2022-08-19T08:48:20;16.23;;;7.35;;
7669;SDS011;3877;42.562;27.636;2022-08-19T08:50:54;15.15;;;7.38;;
7669;SDS011;3877;42.562;27.636;2022-08-19T08:53:25;9.20;;;7.78;;
7669;SDS011;3877;42.562;27.636;2022-08-19T08:55:53;9.82;;;7.43;;
7669;SDS011;3877;42.562;27.636;2022-08-19T08:58:24;13.40;;;8.32;;
7669;SDS011;3877;42.562;27.636;2022-08-19T09:01:08;10.07;;;7.28;;
7669;SDS011;3877;42.562;27.636;2022-08-19T09:03:36;13.90;;;7.45;;
7669;SDS011;3877;42.562;27.636;2022-08-19T09:06:07;9.27;;;7.07;;
7669;SDS011;3877;42.562;27.636;2022-08-19T09:08:43;13.07;;;7.63;;
7669;SDS011;3877;42.562;27.636;2022-08-19T09:11:15;12.32;;;7.28;;
7669;SDS011;3877;42.562;27.636;2022-08-19T09:13:55;11.52;;;6.97;;
7669;SDS011;3877;42.562;27.636;2022-08-19T09:16:33;13.02;;;7.18;;
7669;SDS011;3877;42.562;27.636;2022-08-19T09:19:02;15.85;;;7.80;;
7669;SDS011;3877;42.562;27.636;2022-08-19T09:21:31;12.38;;;7.72;;
7669;SDS011;3877;42.562;27.636;2022-08-19T09:24:01;14.80;;;7.65;;
7669;SDS011;3877;42.562;27.636;2022-08-19T09:26:30;9.45;;;6.82;;
7669;SDS011;3877;42.562;27.636;2022-08-19T09:28:59;8.68;;;7.28;;
7669;SDS011;3877;42.562;27.636;2022-08-19T09:31:30;13.85;;;7.72;;
7669;SDS011;3877;42.562;27.636;2022-08-19T09:33:58;16.05;;;7.93;;
7669;SDS011;3877;42.562;27.636;2022-08-19T09:36:26;14.25;;;7.82;;
7669;SDS011;3877;42.562;27.636;2022-08-19T09:38:58;11.10;;;8.25;;
7669;SDS011;3877;42.562;27.636;2022-08-19T09:41:27;14.75;;;8.10;;
7669;SDS011;3877;42.562;27.636;2022-08-19T09:43:55;14.13;;;7.55;;
7669;SDS011;3877;42.562;27.636;2022-08-19T09:46:24;12.43;;;8.05;;
7669;SDS011;3877;42.562;27.636;2022-08-19T09:48:53;19.77;;;8.88;;
7669;SDS011;3877;42.562;27.636;2022-08-19T09:51:24;12.68;;;7.90;;
7669;SDS011;3877;42.562;27.636;2022-08-19T09:53:53;12.98;;;8.38;;
7669;SDS011;3877;42.562;27.636;2022-08-19T09:56:22;11.00;;;7.80;;
7669;SDS011;3877;42.562;27.636;2022-08-19T09:58:51;15.43;;;8.30;;
7669;SDS011;3877;42.562;27.636;2022-08-19T10:01:20;12.95;;;8.65;;
7669;SDS011;3877;42.562;27.636;2022-08-19T10:03:49;10.02;;;8.40;;
7669;SDS011;3877;42.562;27.636;2022-08-19T10:06:18;13.20;;;9.00;;
7669;SDS011;3877;42.562;27.636;2022-08-19T10:08:45;12.05;;;8.38;;
7669;SDS011;3877;42.562;27.636;2022-08-19T10:11:14;16.73;;;8.85;;
7669;SDS011;3877;42.562;27.636;2022-08-19T10:13:42;13.77;;;8.95;;
7669;SDS011;3877;42.562;27.636;2022-08-19T10:16:12;11.18;;;8.05;;
7669;SDS011;3877;42.562;27.636;2022-08-19T10:18:41;14.90;;;8.60;;
7669;SDS011;3877;42.562;27.636;2022-08-19T10:21:10;16.30;;;8.40;;
7669;SDS011;3877;42.562;27.636;2022-08-19T10:23:40;14.90;;;8.98;;
7669;SDS011;3877;42.562;27.636;2022-08-19T10:26:11;13.98;;;8.65;;
7669;SDS011;3877;42.562;27.636;2022-08-19T10:28:40;12.30;;;9.07;;
7669;SDS011;3877;42.562;27.636;2022-08-19T10:31:08;11.77;;;9.45;;
7669;SDS011;3877;42.562;27.636;2022-08-19T10:33:39;15.90;;;9.30;;
7669;SDS011;3877;42.562;27.636;2022-08-19T10:36:07;15.55;;;9.32;;
7669;SDS011;3877;42.562;27.636;2022-08-19T10:38:36;18.00;;;9.60;;
7669;SDS011;3877;42.562;27.636;2022-08-19T10:41:07;17.02;;;9.50;;
7669;SDS011;3877;42.562;27.636;2022-08-19T10:43:36;16.02;;;9.20;;
7669;SDS011;3877;42.562;27.636;2022-08-19T10:46:05;14.13;;;9.50;;
7669;SDS011;3877;42.562;27.636;2022-08-19T10:48:32;14.63;;;9.02;;
7669;SDS011;3877;42.562;27.636;2022-08-19T10:51:01;13.35;;;9.07;;
7669;SDS011;3877;42.562;27.636;2022-08-19T10:53:46;15.48;;;9.50;;
7669;SDS011;3877;42.562;27.636;2022-08-19T10:56:14;14.65;;;9.60;;
7669;SDS011;3877;42.562;27.636;2022-08-19T10:58:59;15.77;;;9.02;;
7669;SDS011;3877;42.562;27.636;2022-08-19T11:01:28;14.27;;;9.45;;
7669;SDS011;3877;42.562;27.636;2022-08-19T11:03:58;16.02;;;9.55;;
7669;SDS011;3877;42.562;27.636;2022-08-19T11:06:28;14.15;;;9.20;;
7669;SDS011;3877;42.562;27.636;2022-08-19T11:08:56;13.35;;;9.05;;
7669;SDS011;3877;42.562;27.636;2022-08-19T11:11:23;12.63;;;9.57;;
7669;SDS011;3877;42.562;27.636;2022-08-19T11:13:50;16.70;;;9.07;;
7669;SDS011;3877;42.562;27.636;2022-08-19T11:16:18;14.25;;;9.80;;
7669;SDS011;3877;42.562;27.636;2022-08-19T11:18:48;19.92;;;9.35;;
7669;SDS011;3877;42.562;27.636;2022-08-19T11:21:17;14.15;;;9.65;;
7669;SDS011;3877;42.562;27.636;2022-08-19T11:23:51;15.23;;;9.18;;
7669;SDS011;3877;42.562;27.636;2022-08-19T11:26:20;17.48;;;9.07;;
7669;SDS011;3877;42.562;27.636;2022-08-19T11:28:49;12.23;;;9.00;;
7669;SDS011;3877;42.562;27.636;2022-08-19T11:31:20;12.77;;;8.60;;
7669;SDS011;3877;42.562;27.636;2022-08-19T11:33:48;12.45;;;8.68;;
7669;SDS011;3877;42.562;27.636;2022-08-19T11:36:17;14.00;;;9.48;;
7669;SDS011;3877;42.562;27.636;2022-08-19T11:38:46;15.48;;;9.20;;
7669;SDS011;3877;42.562;27.636;2022-08-19T11:41:16;14.57;;;9.15;;
7669;SDS011;3877;42.562;27.636;2022-08-19T11:43:45;15.85;;;9.10;;
7669;SDS011;3877;42.562;27.636;2022-08-19T11:46:14;13.65;;;9.43;;
7669;SDS011;3877;42.562;27.636;2022-08-19T11:48:42;11.10;;;9.27;;
7669;SDS011;3877;42.562;27.636;2022-08-19T11:51:11;11.40;;;8.65;;
7669;SDS011;3877;42.562;27.636;2022-08-19T11:53:39;12.82;;;9.10;;
7669;SDS011;3877;42.562;27.636;2022-08-19T11:56:07;13.05;;;8.77;;
7669;SDS011;3877;42.562;27.636;2022-08-19T11:58:37;14.00;;;9.20;;
7669;SDS011;3877;42.562;27.636;2022-08-19T12:01:07;12.05;;;9.32;;
7669;SDS011;3877;42.562;27.636;2022-08-19T12:03:36;12.20;;;9.27;;
7669;SDS011;3877;42.562;27.636;2022-08-19T12:06:05;14.10;;;8.95;;
7669;SDS011;3877;42.562;27.636;2022-08-19T12:08:32;11.43;;;8.90;;
7669;SDS011;3877;42.562;27.636;2022-08-19T12:11:00;11.93;;;9.13;;
7669;SDS011;3877;42.562;27.636;2022-08-19T12:13:28;10.57;;;9.45;;
7669;SDS011;3877;42.562;27.636;2022-08-19T12:15:58;14.38;;;9.40;;
7669;SDS011;3877;42.562;27.636;2022-08-19T12:18:25;16.60;;;9.60;;
7669;SDS011;3877;42.562;27.636;2022-08-19T12:20:53;13.55;;;9.55;;
7669;SDS011;3877;42.562;27.636;2022-08-19T12:23:21;10.00;;;8.90;;
7669;SDS011;3877;42.562;27.636;2022-08-19T12:25:48;16.25;;;9.65;;
7669;SDS011;3877;42.562;27.636;2022-08-19T12:28:17;11.48;;;9.45;;
7669;SDS011;3877;42.562;27.636;2022-08-19T12:30:45;15.02;;;9.35;;
7669;SDS011;3877;42.562;27.636;2022-08-19T12:33:14;12.10;;;9.05;;
7669;SDS011;3877;42.562;27.636;2022-08-19T12:35:42;10.27;;;8.55;;
7669;SDS011;3877;42.562;27.636;2022-08-19T12:38:11;13.77;;;9.20;;
7669;SDS011;3877;42.562;27.636;2022-08-19T12:40:39;15.02;;;8.95;;
7669;SDS011;3877;42.562;27.636;2022-08-19T12:43:07;12.57;;;8.77;;
7669;SDS011;3877;42.562;27.636;2022-08-19T12:45:37;13.77;;;9.27;;
7669;SDS011;3877;42.562;27.636;2022-08-19T12:48:04;12.85;;;8.52;;
7669;SDS011;3877;42.562;27.636;2022-08-19T12:50:33;11.65;;;8.60;;
7669;SDS011;3877;42.562;27.636;2022-08-19T12:53:01;14.07;;;8.52;;
7669;SDS011;3877;42.562;27.636;2022-08-19T12:55:28;17.65;;;9.18;;
7669;SDS011;3877;42.562;27.636;2022-08-19T12:57:55;17.38;;;9.57;;
7669;SDS011;3877;42.562;27.636;2022-08-19T13:00:23;12.65;;;8.50;;
7669;SDS011;3877;42.562;27.636;2022-08-19T13:02:51;15.25;;;9.23;;
7669;SDS011;3877;42.562;27.636;2022-08-19T13:05:19;15.02;;;9.98;;
7669;SDS011;3877;42.562;27.636;2022-08-19T13:07:50;10.93;;;9.15;;
7669;SDS011;3877;42.562;27.636;2022-08-19T13:10:21;12.45;;;8.60;;
7669;SDS011;3877;42.562;27.636;2022-08-19T13:12:50;12.00;;;9.13;;
7669;SDS011;3877;42.562;27.636;2022-08-19T13:15:19;21.55;;;9.70;;
7669;SDS011;3877;42.562;27.636;2022-08-19T13:17:48;11.20;;;8.55;;
7669;SDS011;3877;42.562;27.636;2022-08-19T13:20:16;10.93;;;8.77;;
7669;SDS011;3877;42.562;27.636;2022-08-19T13:22:46;18.60;;;9.45;;
7669;SDS011;3877;42.562;27.636;2022-08-19T13:25:15;15.77;;;9.00;;
7669;SDS011;3877;42.562;27.636;2022-08-19T13:27:45;17.05;;;9.55;;
7669;SDS011;3877;42.562;27.636;2022-08-19T13:30:13;14.77;;;9.02;;
7669;SDS011;3877;42.562;27.636;2022-08-19T13:32:59;15.60;;;9.88;;
7669;SDS011;3877;42.562;27.636;2022-08-19T13:35:41;16.88;;;9.43;;
7669;SDS011;3877;42.562;27.636;2022-08-19T13:38:11;13.18;;;9.32;;
7669;SDS011;3877;42.562;27.636;2022-08-19T13:40:41;14.25;;;9.50;;
7669;SDS011;3877;42.562;27.636;2022-08-19T13:43:08;14.52;;;9.23;;
7669;SDS011;3877;42.562;27.636;2022-08-19T13:45:36;13.25;;;9.77;;
7669;SDS011;3877;42.562;27.636;2022-08-19T13:48:04;15.32;;;9.77;;
7669;SDS011;3877;42.562;27.636;2022-08-19T13:50:34;14.55;;;9.50;;
7669;SDS011;3877;42.562;27.636;2022-08-19T13:53:05;14.40;;;9.55;;
7669;SDS011;3877;42.562;27.636;2022-08-19T13:55:33;11.10;;;9.27;;
7669;SDS011;3877;42.562;27.636;2022-08-19T13:58:04;13.63;;;9.95;;
7669;SDS011;3877;42.562;27.636;2022-08-19T14:00:33;15.00;;;9.70;;
7669;SDS011;3877;42.562;27.636;2022-08-19T14:03:01;15.63;;;9.63;;
7669;SDS011;3877;42.562;27.636;2022-08-19T14:05:30;16.05;;;9.55;;
7669;SDS011;3877;42.562;27.636;2022-08-19T14:07:59;11.70;;;10.50;;
7669;SDS011;3877;42.562;27.636;2022-08-19T14:10:26;23.23;;;11.75;;
7669;SDS011;3877;42.562;27.636;2022-08-19T14:12:56;12.65;;;9.48;;
7669;SDS011;3877;42.562;27.636;2022-08-19T14:15:27;14.82;;;9.73;;
7669;SDS011;3877;42.562;27.636;2022-08-19T14:17:55;13.30;;;9.50;;
7669;SDS011;3877;42.562;27.636;2022-08-19T14:20:22;15.98;;;10.13;;
7669;SDS011;3877;42.562;27.636;2022-08-19T14:22:50;11.40;;;9.75;;
7669;SDS011;3877;42.562;27.636;2022-08-19T14:25:18;12.00;;;9.23;;
7669;SDS011;3877;42.562;27.636;2022-08-19T14:27:47;14.93;;;10.30;;
7669;SDS011;3877;42.562;27.636;2022-08-19T14:30:16;12.65;;;9.65;;
7669;SDS011;3877;42.562;27.636;2022-08-19T14:32:53;10.77;;;9.57;;
7669;SDS011;3877;42.562;27.636;2022-08-19T14:35:21;11.63;;;10.02;;
7669;SDS011;3877;42.562;27.636;2022-08-19T14:37:52;18.00;;;10.15;;
7669;SDS011;3877;42.562;27.636;2022-08-19T14:40:24;14.63;;;10.00;;
7669;SDS011;3877;42.562;27.636;2022-08-19T14:42:53;15.77;;;10.43;;
7669;SDS011;3877;42.562;27.636;2022-08-19T14:45:29;15.73;;;10.15;;
7669;SDS011;3877;42.562;27.636;2022-08-19T14:47:59;17.45;;;10.13;;
7669;SDS011;3877;42.562;27.636;2022-08-19T14:50:26;12.30;;;10.27;;
7669;SDS011;3877;42.562;27.636;2022-08-19T14:52:57;16.20;;;10.40;;
7669;SDS011;3877;42.562;27.636;2022-08-19T14:55:26;16.55;;;9.80;;
7669;SDS011;3877;42.562;27.636;2022-08-19T14:57:53;13.95;;;10.23;;